createdAt,value
2018-11-26T00:00:44.594Z,15.00
2018-11-26T00:03:47.666Z,15.47
2018-11-26T00:06:50.756Z,16.30
2018-11-26T00:10:04.125Z,16.03
2018-11-26T00:13:07.215Z,14.43
2018-11-26T00:16:10.274Z,15.83
2018-11-26T00:19:13.350Z,15.97
2018-11-26T00:22:16.437Z,15.23
2018-11-26T00:25:19.513Z,15.13
2018-11-26T00:28:22.594Z,13.40
2018-11-26T00:31:25.652Z,13.87
2018-11-26T00:34:28.714Z,13.43
2018-11-26T00:37:31.785Z,13.67
2018-11-26T00:40:34.861Z,13.00
2018-11-26T00:43:37.916Z,12.93
2018-11-26T00:46:40.985Z,13.27
2018-11-26T00:49:44.066Z,13.23
2018-11-26T00:52:47.151Z,13.77
2018-11-26T00:55:50.245Z,14.20
2018-11-26T00:58:53.375Z,13.73
2018-11-26T01:01:56.454Z,13.80
2018-11-26T01:04:59.535Z,13.73
2018-11-26T01:08:02.613Z,14.23
2018-11-26T01:11:06.326Z,12.80
2018-11-26T01:14:09.384Z,13.60
2018-11-26T01:17:12.469Z,13.87
2018-11-26T01:20:15.542Z,12.87
2018-11-26T01:23:18.623Z,14.20
2018-11-26T01:26:21.695Z,14.73
2018-11-26T01:29:24.774Z,15.23
2018-11-26T01:32:27.866Z,16.07
2018-11-26T01:35:30.913Z,15.47
2018-11-26T01:38:33.990Z,15.73
2018-11-26T01:41:37.054Z,16.07
2018-11-26T01:44:40.170Z,14.57
2018-11-26T01:47:43.231Z,14.40
2018-11-26T01:50:46.320Z,14.27
2018-11-26T01:53:49.366Z,13.87
2018-11-26T01:56:52.444Z,13.70
2018-11-26T01:59:55.511Z,12.63
2018-11-26T02:02:58.580Z,12.77
2018-11-26T02:06:01.674Z,12.57
2018-11-26T02:09:05.230Z,12.27
2018-11-26T02:12:08.398Z,12.47
2018-11-26T02:15:24.714Z,11.90
2018-11-26T02:18:27.791Z,10.33
2018-11-26T02:21:30.887Z,11.87
2018-11-26T02:24:34.003Z,10.67
2018-11-26T02:27:37.065Z,10.60
2018-11-26T02:30:40.143Z,10.80
2018-11-26T02:33:43.226Z,10.30
2018-11-26T02:36:46.305Z,10.20
2018-11-26T02:39:49.395Z,10.50
2018-11-26T02:42:52.535Z,11.13
2018-11-26T02:45:55.620Z,10.13
2018-11-26T02:48:58.700Z,9.23
2018-11-26T02:52:01.751Z,9.80
2018-11-26T02:55:05.339Z,9.73
2018-11-26T02:58:08.431Z,9.70
2018-11-26T03:01:11.512Z,10.07
2018-11-26T03:04:15.694Z,8.57
2018-11-26T03:07:18.775Z,8.93
2018-11-26T03:10:22.139Z,9.13
2018-11-26T03:13:25.210Z,9.23
2018-11-26T03:16:28.298Z,10.33
2018-11-26T03:19:31.369Z,9.90
2018-11-26T03:22:34.446Z,8.63
2018-11-26T03:25:37.544Z,8.33
2018-11-26T03:28:40.606Z,8.57
2018-11-26T03:31:43.723Z,7.70
2018-11-26T03:34:46.798Z,9.07
2018-11-26T03:37:49.858Z,8.33
2018-11-26T03:40:53.159Z,10.73
2018-11-26T03:43:56.202Z,8.87
2018-11-26T03:46:59.270Z,8.97
2018-11-26T03:50:02.354Z,9.13
2018-11-26T03:53:06.162Z,9.27
2018-11-26T03:56:09.234Z,9.47
2018-11-26T03:59:12.450Z,8.57
2018-11-26T04:02:15.582Z,8.73
2018-11-26T04:05:18.679Z,9.43
2018-11-26T04:08:21.730Z,7.93
2018-11-26T04:11:24.812Z,8.47
2018-11-26T04:14:27.867Z,8.57
2018-11-26T04:17:30.978Z,7.90
2018-11-26T04:20:34.398Z,8.70
2018-11-26T04:23:37.442Z,9.13
2018-11-26T04:26:40.515Z,8.47
2018-11-26T04:29:43.575Z,9.03
2018-11-26T04:32:46.633Z,8.67
2018-11-26T04:35:49.724Z,8.03
2018-11-26T04:38:52.783Z,8.30
2018-11-26T04:41:55.854Z,7.60
2018-11-26T04:44:58.924Z,8.93
2018-11-26T04:48:02.028Z,8.63
2018-11-26T04:51:05.271Z,9.40
2018-11-26T04:54:08.337Z,9.03
2018-11-26T04:57:11.398Z,8.83
2018-11-26T05:00:15.396Z,9.50
2018-11-26T05:03:18.394Z,9.60
2018-11-26T05:06:21.506Z,9.90
2018-11-26T05:09:24.574Z,9.57
2018-11-26T05:12:27.670Z,10.53
2018-11-26T05:15:30.719Z,10.60
2018-11-26T05:18:33.806Z,10.20
2018-11-26T05:21:36.858Z,10.03
2018-11-26T05:24:39.959Z,10.63
2018-11-26T05:27:43.015Z,10.77
2018-11-26T05:30:46.091Z,10.90
2018-11-26T05:33:49.175Z,11.83
2018-11-26T05:36:52.246Z,10.10
2018-11-26T05:39:55.294Z,11.30
2018-11-26T05:42:58.387Z,10.67
2018-11-26T05:46:01.455Z,11.33
2018-11-26T05:49:04.518Z,11.90
2018-11-26T05:52:07.602Z,11.97
2018-11-26T05:55:13.662Z,11.80
2018-11-26T05:58:16.761Z,12.57
2018-11-26T06:01:19.838Z,12.47
2018-11-26T06:04:22.894Z,12.33
2018-11-26T06:07:25.954Z,12.30
2018-11-26T06:10:29.042Z,12.30
2018-11-26T06:13:32.162Z,11.80
2018-11-26T06:16:36.438Z,12.80
2018-11-26T06:19:39.527Z,11.90
2018-11-26T06:22:43.859Z,12.63
2018-11-26T06:25:47.453Z,12.67
2018-11-26T06:28:50.507Z,12.97
2018-11-26T06:31:53.598Z,12.77
2018-11-26T06:34:56.653Z,12.77
2018-11-26T06:37:59.743Z,12.73
2018-11-26T06:41:02.839Z,12.37
2018-11-26T06:44:06.498Z,12.97
2018-11-26T06:47:09.571Z,12.60
2018-11-26T06:50:13.811Z,12.47
2018-11-26T06:53:16.880Z,12.17
2018-11-26T06:56:19.948Z,12.67
2018-11-26T06:59:23.012Z,12.40
2018-11-26T07:02:26.090Z,12.17
2018-11-26T07:05:29.171Z,12.23
2018-11-26T07:08:32.246Z,11.60
2018-11-26T07:11:35.642Z,11.50
2018-11-26T07:14:38.726Z,12.90
2018-11-26T07:17:41.877Z,12.57
2018-11-26T07:20:44.963Z,11.77
2018-11-26T07:23:48.031Z,12.43
2018-11-26T07:26:51.110Z,12.20
2018-11-26T07:29:54.229Z,12.50
2018-11-26T07:32:57.293Z,12.83
2018-11-26T07:36:00.391Z,12.50
2018-11-26T07:39:03.986Z,12.50
2018-11-26T07:42:07.498Z,12.10
2018-11-26T07:45:12.470Z,11.97
2018-11-26T07:48:15.548Z,13.07
2018-11-26T07:51:18.621Z,12.47
2018-11-26T07:54:21.697Z,11.83
2018-11-26T07:57:24.770Z,12.63
2018-11-26T08:00:27.839Z,12.27
2018-11-26T08:03:30.914Z,12.97
2018-11-26T08:06:34.012Z,12.27
2018-11-26T08:09:37.134Z,13.30
2018-11-26T08:12:40.219Z,12.23
2018-11-26T08:15:49.388Z,11.83
2018-11-26T08:18:52.619Z,13.03
2018-11-26T08:21:55.670Z,11.90
2018-11-26T08:24:58.756Z,11.93
2018-11-26T08:28:01.935Z,11.97
2018-11-26T08:31:05.408Z,12.03
2018-11-26T08:34:08.491Z,12.17
2018-11-26T08:37:16.612Z,12.23
2018-11-26T08:40:25.563Z,11.53
2018-11-26T08:43:34.627Z,11.93
2018-11-26T08:46:43.082Z,12.67
2018-11-26T08:49:46.290Z,11.57
2018-11-26T08:52:49.342Z,13.07
2018-11-26T08:55:52.435Z,11.47
2018-11-26T08:58:55.530Z,12.53
2018-11-26T09:02:00.543Z,12.50
2018-11-26T09:05:08.897Z,12.27
2018-11-26T09:08:11.989Z,11.57
2018-11-26T09:11:15.091Z,10.73
2018-11-26T09:14:18.194Z,10.93
2018-11-26T09:20:48.810Z,10.07
2018-11-26T09:23:51.872Z,10.73
2018-11-26T09:26:55.006Z,10.13
2018-11-26T09:29:58.095Z,10.20
2018-11-26T09:33:01.173Z,10.60
2018-11-26T09:36:04.241Z,11.70
2018-11-26T09:39:10.806Z,10.97
2018-11-26T09:42:13.894Z,10.77
2018-11-26T09:45:17.894Z,11.67
2018-11-26T09:48:20.960Z,11.70
2018-11-26T09:51:24.039Z,11.57
2018-11-26T09:54:27.099Z,11.40
2018-11-26T09:57:30.163Z,11.73
2018-11-26T10:00:33.218Z,12.57
2018-11-26T10:03:36.299Z,11.10
2018-11-26T10:06:41.395Z,12.37
2018-11-26T10:09:44.478Z,11.70
2018-11-26T10:12:47.539Z,11.57
2018-11-26T10:15:50.623Z,11.73
2018-11-26T10:18:53.703Z,11.50
2018-11-26T10:21:56.757Z,11.20
2018-11-26T10:25:05.765Z,11.83
2018-11-26T10:28:02.970Z,10.37
2018-11-26T10:31:06.043Z,10.57
2018-11-26T10:34:09.127Z,11.03
2018-11-26T10:37:12.206Z,10.57
2018-11-26T10:40:18.467Z,11.20
2018-11-26T10:43:21.522Z,10.03
2018-11-26T10:46:24.598Z,11.30
2018-11-26T10:49:27.654Z,9.70
2018-11-26T10:52:30.735Z,10.67
2018-11-26T10:55:34.994Z,10.70
2018-11-26T10:58:38.078Z,10.57
2018-11-26T11:01:44.419Z,10.87
2018-11-26T11:04:47.835Z,12.07
2018-11-26T11:07:50.598Z,12.83
2018-11-26T11:10:53.657Z,15.53
2018-11-26T11:13:56.750Z,17.17
2018-11-26T11:16:59.838Z,17.87
2018-11-26T11:20:03.403Z,17.33
2018-11-26T11:23:07.755Z,16.77
2018-11-26T11:26:10.829Z,17.87
2018-11-26T11:29:13.924Z,17.70
2018-11-26T11:32:17.007Z,16.77
2018-11-26T11:35:20.350Z,16.77
2018-11-26T11:38:23.423Z,16.87
2018-11-26T11:41:26.503Z,17.20
2018-11-26T11:44:29.604Z,17.97
2018-11-26T11:47:32.661Z,16.17
2018-11-26T11:50:35.763Z,17.03
2018-11-26T11:53:38.852Z,18.83
2018-11-26T11:56:41.952Z,18.70
2018-11-26T11:59:45.044Z,18.77
2018-11-26T12:02:48.123Z,17.80
2018-11-26T12:05:51.216Z,17.70
2018-11-26T12:08:54.269Z,16.83
2018-11-26T12:11:57.380Z,18.17
2018-11-26T12:15:00.440Z,16.63
2018-11-26T12:18:03.502Z,17.20
2018-11-26T12:21:06.589Z,16.83
2018-11-26T12:24:09.704Z,17.37
2018-11-26T12:27:12.800Z,16.73
2018-11-26T12:30:17.993Z,17.77
2018-11-26T12:33:21.138Z,16.27
2018-11-26T12:36:24.177Z,16.67
2018-11-26T12:39:27.236Z,16.10
2018-11-26T12:42:30.315Z,16.53
2018-11-26T12:45:34.223Z,16.77
2018-11-26T12:48:37.283Z,16.60
2018-11-26T12:51:40.365Z,16.50
2018-11-26T12:54:43.444Z,17.27
2018-11-26T12:57:47.562Z,18.63
2018-11-26T13:00:50.631Z,18.43
2018-11-26T13:03:53.708Z,17.97
2018-11-26T13:06:56.804Z,17.40
2018-11-26T13:09:59.904Z,18.40
2018-11-26T13:13:02.992Z,18.50
2018-11-26T13:16:06.107Z,18.30
2018-11-26T13:19:09.319Z,18.00
2018-11-26T13:22:12.433Z,18.40
2018-11-26T13:25:18.646Z,18.03
2018-11-26T13:28:21.745Z,17.70
2018-11-26T13:31:24.825Z,17.20
2018-11-26T13:34:27.891Z,17.00
2018-11-26T13:37:30.974Z,16.03
2018-11-26T13:40:34.063Z,17.00
2018-11-26T13:43:37.148Z,15.67
2018-11-26T13:46:40.233Z,16.47
2018-11-26T13:49:43.363Z,16.60
2018-11-26T13:52:46.417Z,16.23
2018-11-26T13:55:49.484Z,14.90
2018-11-26T13:58:52.808Z,15.30
2018-11-26T14:01:55.652Z,15.13
2018-11-26T14:04:58.745Z,16.53
2018-11-26T14:08:01.816Z,16.13
2018-11-26T14:11:04.947Z,14.47
2018-11-26T14:14:08.016Z,14.67
2018-11-26T14:17:11.112Z,16.37
2018-11-26T14:20:15.382Z,15.43
2018-11-26T14:23:18.457Z,14.93
2018-11-26T14:26:21.548Z,13.43
2018-11-26T14:29:24.632Z,15.63
2018-11-26T14:32:27.694Z,14.23
2018-11-26T14:35:30.784Z,14.33
2018-11-26T14:38:33.836Z,13.30
2018-11-26T14:41:36.924Z,13.33
2018-11-26T14:44:40.002Z,12.20
2018-11-26T14:47:43.554Z,12.57
2018-11-26T14:50:46.604Z,13.57
2018-11-26T14:53:49.691Z,13.20
2018-11-26T14:56:52.869Z,13.90
2018-11-26T14:59:56.040Z,15.00
2018-11-26T15:02:59.109Z,13.57
2018-11-26T15:06:02.197Z,15.63
2018-11-26T15:09:08.240Z,14.97
2018-11-26T15:12:11.319Z,15.10
2018-11-26T15:15:15.644Z,15.27
2018-11-26T15:18:18.739Z,15.00
2018-11-26T15:21:21.820Z,13.47
2018-11-26T15:24:24.895Z,14.03
2018-11-26T15:27:28.015Z,13.63
2018-11-26T15:30:31.111Z,12.93
2018-11-26T15:33:34.196Z,13.30
2018-11-26T15:36:37.274Z,13.13
2018-11-26T15:39:40.356Z,17.60
2018-11-26T15:42:43.468Z,12.83
2018-11-26T15:45:46.526Z,12.03
2018-11-26T15:48:49.606Z,12.43
2018-11-26T15:51:52.659Z,10.13
2018-11-26T15:54:55.746Z,11.97
2018-11-26T15:57:58.796Z,10.80
2018-11-26T16:01:01.863Z,11.53
2018-11-26T16:04:05.357Z,11.10
2018-11-26T16:07:08.453Z,10.30
2018-11-26T16:10:13.503Z,10.57
2018-11-26T16:13:16.676Z,10.90
2018-11-26T16:16:19.756Z,10.87
2018-11-26T16:19:22.856Z,11.03
2018-11-26T16:22:25.955Z,10.30
2018-11-26T16:25:29.044Z,11.40
2018-11-26T16:28:32.096Z,10.13
2018-11-26T16:31:35.176Z,9.93
2018-11-26T16:34:38.229Z,10.63
2018-11-26T16:37:41.308Z,11.40
2018-11-26T16:40:44.363Z,10.60
2018-11-26T16:43:47.460Z,10.57
2018-11-26T16:46:50.563Z,11.03
2018-11-26T16:49:53.639Z,11.20
2018-11-26T16:52:56.777Z,10.87
2018-11-26T16:55:59.835Z,10.53
2018-11-26T16:59:02.900Z,11.03
2018-11-26T17:02:05.956Z,11.50
2018-11-26T17:05:11.900Z,11.53
2018-11-26T17:08:15.640Z,11.50
2018-11-26T17:11:18.716Z,13.20
2018-11-26T17:14:21.780Z,14.43
2018-11-26T17:17:24.843Z,13.57
2018-11-26T17:20:27.983Z,14.17
2018-11-26T17:23:31.064Z,14.17
2018-11-26T17:26:34.127Z,15.43
2018-11-26T17:29:37.212Z,15.53
2018-11-26T17:32:40.541Z,15.80
2018-11-26T17:35:43.652Z,15.13
2018-11-26T17:38:46.721Z,16.23
2018-11-26T17:41:50.540Z,17.57
2018-11-26T17:44:53.623Z,15.20
2018-11-26T17:47:57.810Z,15.63
2018-11-26T17:51:00.903Z,15.57
2018-11-26T17:54:03.983Z,15.17
2018-11-26T17:57:07.040Z,16.03
2018-11-26T18:00:13.788Z,15.43
2018-11-26T18:03:17.084Z,14.97
2018-11-26T18:06:20.143Z,15.43
2018-11-26T18:09:23.240Z,15.10
2018-11-26T18:12:26.289Z,14.83
2018-11-26T18:15:29.383Z,16.17
2018-11-26T18:18:32.474Z,13.70
2018-11-26T18:21:35.565Z,14.10
2018-11-26T18:24:38.636Z,15.90
2018-11-26T18:27:46.943Z,14.70
2018-11-26T18:30:51.163Z,14.10
2018-11-26T18:33:54.255Z,15.13
2018-11-26T18:36:57.392Z,14.70
2018-11-26T18:40:00.487Z,14.23
2018-11-26T18:43:03.576Z,14.40
2018-11-26T18:46:06.660Z,14.77
2018-11-26T18:49:09.729Z,13.43
2018-11-26T18:52:12.808Z,13.80
2018-11-26T18:55:15.916Z,13.83
2018-11-26T18:58:19.020Z,13.53
2018-11-26T19:01:22.075Z,13.60
2018-11-26T19:04:25.165Z,13.00
2018-11-26T19:07:28.288Z,13.77
2018-11-26T19:10:33.179Z,13.33
2018-11-26T19:14:00.063Z,14.67
2018-11-26T19:17:03.109Z,13.70
2018-11-26T19:20:18.779Z,15.33
2018-11-26T19:23:22.282Z,14.87
2018-11-26T19:26:25.848Z,15.77
2018-11-26T19:29:28.468Z,15.47
2018-11-26T19:32:31.536Z,16.87
2018-11-26T19:35:34.628Z,15.50
2018-11-26T19:38:37.703Z,15.50
2018-11-26T19:41:40.804Z,16.20
2018-11-26T19:44:43.884Z,14.73
2018-11-26T19:47:47.093Z,14.53
2018-11-26T19:50:50.180Z,14.87
2018-11-26T19:53:53.275Z,13.80
2018-11-26T19:56:56.357Z,13.33
2018-11-26T19:59:59.449Z,14.63
2018-11-26T20:03:21.280Z,14.33
2018-11-26T20:06:25.167Z,14.17
2018-11-26T20:09:28.339Z,14.23
2018-11-26T20:12:31.412Z,14.17
2018-11-26T20:15:34.479Z,14.10
2018-11-26T20:18:37.567Z,15.33
2018-11-26T20:21:40.648Z,15.77
2018-11-26T20:24:43.755Z,14.40
2018-11-26T20:27:46.799Z,15.90
2018-11-26T20:30:49.916Z,15.90
2018-11-26T20:33:52.992Z,14.63
2018-11-26T20:36:56.096Z,14.70
2018-11-26T20:39:59.240Z,15.47
2018-11-26T20:43:02.359Z,14.83
2018-11-26T20:46:05.611Z,15.67
2018-11-26T20:49:09.268Z,13.87
2018-11-26T20:52:12.340Z,14.80
2018-11-26T20:55:19.731Z,13.93
2018-11-26T20:58:22.844Z,13.87
2018-11-26T21:01:25.949Z,13.47
2018-11-26T21:04:29.061Z,13.80
2018-11-26T21:07:32.124Z,14.80
2018-11-26T21:10:35.409Z,14.53
2018-11-26T21:13:38.640Z,13.90
2018-11-26T21:16:41.762Z,15.50
2018-11-26T21:19:49.609Z,16.37
2018-11-26T21:22:48.987Z,17.00
2018-11-26T21:25:52.455Z,15.83
2018-11-26T21:28:55.535Z,14.63
2018-11-26T21:31:58.624Z,15.50
2018-11-26T21:35:01.702Z,13.97
2018-11-26T21:38:05.906Z,14.60
2018-11-26T21:41:08.975Z,14.50
2018-11-26T21:44:12.072Z,15.87
2018-11-26T21:47:15.153Z,15.17
2018-11-26T21:50:18.239Z,15.77
2018-11-26T21:53:21.301Z,16.83
2018-11-26T21:56:24.803Z,17.47
2018-11-26T21:59:27.892Z,16.47
2018-11-26T22:02:30.970Z,17.00
2018-11-26T22:05:34.690Z,16.13
2018-11-26T22:08:38.391Z,16.80
2018-11-26T22:11:45.635Z,16.33
2018-11-26T22:14:48.711Z,14.97
2018-11-26T22:17:51.852Z,15.20
2018-11-26T22:20:54.908Z,16.37
2018-11-26T22:23:58.051Z,14.87
2018-11-26T22:27:01.054Z,16.17
2018-11-26T22:30:08.081Z,15.67
2018-11-26T22:33:11.199Z,14.40
2018-11-26T22:36:14.288Z,15.07
2018-11-26T22:39:17.396Z,14.60
2018-11-26T22:42:20.479Z,13.17
2018-11-26T22:45:25.430Z,13.87
2018-11-26T22:48:28.522Z,14.53
2018-11-26T22:51:31.620Z,14.03
2018-11-26T22:54:34.699Z,12.93
2018-11-26T22:57:37.756Z,12.70
2018-11-26T23:00:45.628Z,13.47
2018-11-26T23:03:48.695Z,13.60
2018-11-26T23:06:51.779Z,13.90
2018-11-26T23:09:54.844Z,14.53
2018-11-26T23:12:58.009Z,13.43
2018-11-26T23:16:01.084Z,14.47
2018-11-26T23:19:04.227Z,14.10
2018-11-26T23:22:07.343Z,14.17
2018-11-26T23:25:11.496Z,14.53
2018-11-26T23:28:14.593Z,16.00
2018-11-26T23:31:17.652Z,15.17
2018-11-26T23:34:20.719Z,14.30
2018-11-26T23:37:23.802Z,15.10
2018-11-26T23:40:26.863Z,14.93
2018-11-26T23:43:29.967Z,14.80
2018-11-26T23:46:33.070Z,15.17
2018-11-26T23:49:36.139Z,16.10
2018-11-26T23:52:39.657Z,16.63
2018-11-26T23:55:42.776Z,14.90
2018-11-26T23:58:45.835Z,16.33
